sensor_id;sensor_type;location;lat;lon;timestamp;temperature;humidity
1413;DHT22;701;52.526;13.408;2023-09-19T00:01:15;18.60;38.00
1413;DHT22;701;52.526;13.408;2023-09-19T00:03:45;18.60;38.20
1413;DHT22;701;52.526;13.408;2023-09-19T00:06:11;18.60;38.10
1413;DHT22;701;52.526;13.408;2023-09-19T00:08:38;18.50;38.10
1413;DHT22;701;52.526;13.408;2023-09-19T00:11:04;18.50;37.90
1413;DHT22;701;52.526;13.408;2023-09-19T00:13:32;18.50;37.90
1413;DHT22;701;52.526;13.408;2023-09-19T00:15:59;18.50;38.50
1413;DHT22;701;52.526;13.408;2023-09-19T00:18:25;18.40;38.20
1413;DHT22;701;52.526;13.408;2023-09-19T00:21:00;18.40;38.10
1413;DHT22;701;52.526;13.408;2023-09-19T00:23:25;18.40;38.10
1413;DHT22;701;52.526;13.408;2023-09-19T00:25:52;18.40;38.00
1413;DHT22;701;52.526;13.408;2023-09-19T00:28:18;18.40;38.30
1413;DHT22;701;52.526;13.408;2023-09-19T00:30:45;18.40;38.00
1413;DHT22;701;52.526;13.408;2023-09-19T00:33:15;18.40;38.00
1413;DHT22;701;52.526;13.408;2023-09-19T00:35:59;18.30;38.10
1413;DHT22;701;52.526;13.408;2023-09-19T00:38:30;18.30;38.50
1413;DHT22;701;52.526;13.408;2023-09-19T00:40:57;18.30;38.20
1413;DHT22;701;52.526;13.408;2023-09-19T00:43:25;18.30;38.40
1413;DHT22;701;52.526;13.408;2023-09-19T00:45:54;18.30;38.50
1413;DHT22;701;52.526;13.408;2023-09-19T00:48:24;18.30;38.40
1413;DHT22;701;52.526;13.408;2023-09-19T00:50:52;18.30;38.40
1413;DHT22;701;52.526;13.408;2023-09-19T00:53:22;18.20;38.30
1413;DHT22;701;52.526;13.408;2023-09-19T00:55:50;18.20;38.30
1413;DHT22;701;52.526;13.408;2023-09-19T00:58:17;18.20;38.40
1413;DHT22;701;52.526;13.408;2023-09-19T01:00:44;18.20;38.40
1413;DHT22;701;52.526;13.408;2023-09-19T01:03:11;18.20;38.30
1413;DHT22;701;52.526;13.408;2023-09-19T01:05:40;18.20;38.40
1413;DHT22;701;52.526;13.408;2023-09-19T01:08:06;18.10;38.30
1413;DHT22;701;52.526;13.408;2023-09-19T01:10:33;18.10;38.30
1413;DHT22;701;52.526;13.408;2023-09-19T01:13:17;18.10;38.30
1413;DHT22;701;52.526;13.408;2023-09-19T01:18:45;18.10;38.30
1413;DHT22;701;52.526;13.408;2023-09-19T01:21:27;18.10;38.30
1413;DHT22;701;52.526;13.408;2023-09-19T01:27:32;18.10;38.30
1413;DHT22;701;52.526;13.408;2023-09-19T01:30:10;18.10;38.30
1413;DHT22;701;52.526;13.408;2023-09-19T01:32:37;18.20;38.40
1413;DHT22;701;52.526;13.408;2023-09-19T01:35:04;18.20;38.30
1413;DHT22;701;52.526;13.408;2023-09-19T01:37:30;18.30;38.40
1413;DHT22;701;52.526;13.408;2023-09-19T01:40:00;18.30;38.40
1413;DHT22;701;52.526;13.408;2023-09-19T01:48:35;18.50;37.50
1413;DHT22;701;52.526;13.408;2023-09-19T01:51:10;18.50;37.10
1413;DHT22;701;52.526;13.408;2023-09-19T01:53:39;18.60;36.80
1413;DHT22;701;52.526;13.408;2023-09-19T01:56:08;18.60;36.40
1413;DHT22;701;52.526;13.408;2023-09-19T01:58:51;18.70;36.20
1413;DHT22;701;52.526;13.408;2023-09-19T02:01:22;18.70;35.70
1413;DHT22;701;52.526;13.408;2023-09-19T02:03:50;18.60;35.20
1413;DHT22;701;52.526;13.408;2023-09-19T02:06:17;18.60;35.10
1413;DHT22;701;52.526;13.408;2023-09-19T02:08:44;18.50;35.10
1413;DHT22;701;52.526;13.408;2023-09-19T02:11:13;18.40;35.00
1413;DHT22;701;52.526;13.408;2023-09-19T02:13:40;18.40;35.10
1413;DHT22;701;52.526;13.408;2023-09-19T02:16:07;18.30;35.20
1413;DHT22;701;52.526;13.408;2023-09-19T02:18:35;18.30;35.40
1413;DHT22;701;52.526;13.408;2023-09-19T02:21:02;18.20;35.50
1413;DHT22;701;52.526;13.408;2023-09-19T02:23:29;18.20;35.70
1413;DHT22;701;52.526;13.408;2023-09-19T02:25:56;18.10;35.70
1413;DHT22;701;52.526;13.408;2023-09-19T02:28:26;18.10;36.00
1413;DHT22;701;52.526;13.408;2023-09-19T02:31:01;18.00;36.60
1413;DHT22;701;52.526;13.408;2023-09-19T02:33:28;18.00;36.10
1413;DHT22;701;52.526;13.408;2023-09-19T02:35:59;17.90;36.30
1413;DHT22;701;52.526;13.408;2023-09-19T02:38:25;17.90;36.50
1413;DHT22;701;52.526;13.408;2023-09-19T02:40:54;17.90;36.60
1413;DHT22;701;52.526;13.408;2023-09-19T02:43:21;17.80;36.70
1413;DHT22;701;52.526;13.408;2023-09-19T02:45:48;17.80;37.20
1413;DHT22;701;52.526;13.408;2023-09-19T02:48:19;17.80;37.60
1413;DHT22;701;52.526;13.408;2023-09-19T02:50:46;17.70;37.80
1413;DHT22;701;52.526;13.408;2023-09-19T02:53:12;17.70;37.90
1413;DHT22;701;52.526;13.408;2023-09-19T02:55:38;17.70;38.00
1413;DHT22;701;52.526;13.408;2023-09-19T02:58:06;17.70;37.90
1413;DHT22;701;52.526;13.408;2023-09-19T03:00:40;17.70;37.90
1413;DHT22;701;52.526;13.408;2023-09-19T03:03:08;17.70;38.00
1413;DHT22;701;52.526;13.408;2023-09-19T03:05:34;17.70;38.30
1413;DHT22;701;52.526;13.408;2023-09-19T03:08:01;17.70;38.40
1413;DHT22;701;52.526;13.408;2023-09-19T03:10:27;17.70;38.60
1413;DHT22;701;52.526;13.408;2023-09-19T03:12:55;17.70;38.10
1413;DHT22;701;52.526;13.408;2023-09-19T03:15:21;17.70;38.40
1413;DHT22;701;52.526;13.408;2023-09-19T03:17:49;17.70;37.90
1413;DHT22;701;52.526;13.408;2023-09-19T03:20:19;17.70;37.90
1413;DHT22;701;52.526;13.408;2023-09-19T03:22:47;17.70;37.90
1413;DHT22;701;52.526;13.408;2023-09-19T03:25:15;17.70;37.90
1413;DHT22;701;52.526;13.408;2023-09-19T03:27:46;17.70;37.30
1413;DHT22;701;52.526;13.408;2023-09-19T03:30:13;17.70;37.00
1413;DHT22;701;52.526;13.408;2023-09-19T03:32:45;17.80;36.80
1413;DHT22;701;52.526;13.408;2023-09-19T03:35:12;17.80;36.50
1413;DHT22;701;52.526;13.408;2023-09-19T03:37:40;17.80;36.20
1413;DHT22;701;52.526;13.408;2023-09-19T03:40:08;17.80;35.80
1413;DHT22;701;52.526;13.408;2023-09-19T03:42:39;17.80;35.10
1413;DHT22;701;52.526;13.408;2023-09-19T03:45:10;17.80;35.10
1413;DHT22;701;52.526;13.408;2023-09-19T03:47:39;17.80;34.60
1413;DHT22;701;52.526;13.408;2023-09-19T03:50:06;17.80;34.30
1413;DHT22;701;52.526;13.408;2023-09-19T03:52:34;17.80;34.10
1413;DHT22;701;52.526;13.408;2023-09-19T03:55:00;17.80;33.70
1413;DHT22;701;52.526;13.408;2023-09-19T03:57:29;17.80;33.50
1413;DHT22;701;52.526;13.408;2023-09-19T03:59:55;17.80;33.50
1413;DHT22;701;52.526;13.408;2023-09-19T04:02:21;17.80;33.50
1413;DHT22;701;52.526;13.408;2023-09-19T04:04:51;17.80;33.10
1413;DHT22;701;52.526;13.408;2023-09-19T04:07:18;17.70;32.90
1413;DHT22;701;52.526;13.408;2023-09-19T04:09:48;17.70;32.00
1413;DHT22;701;52.526;13.408;2023-09-19T04:12:15;17.70;31.40
1413;DHT22;701;52.526;13.408;2023-09-19T04:14:42;17.70;31.30
1413;DHT22;701;52.526;13.408;2023-09-19T04:17:09;17.70;30.70
1413;DHT22;701;52.526;13.408;2023-09-19T04:19:35;17.70;30.20
1413;DHT22;701;52.526;13.408;2023-09-19T04:22:02;17.70;29.30
1413;DHT22;701;52.526;13.408;2023-09-19T04:24:28;17.70;29.80
1413;DHT22;701;52.526;13.408;2023-09-19T04:26:54;17.70;29.60
1413;DHT22;701;52.526;13.408;2023-09-19T04:29:20;17.60;29.20
1413;DHT22;701;52.526;13.408;2023-09-19T04:31:46;17.60;29.10
1413;DHT22;701;52.526;13.408;2023-09-19T04:34:12;17.60;29.30
1413;DHT22;701;52.526;13.408;2023-09-19T04:36:44;17.60;28.70
1413;DHT22;701;52.526;13.408;2023-09-19T04:39:10;17.60;28.80
1413;DHT22;701;52.526;13.408;2023-09-19T04:41:38;17.50;28.50
1413;DHT22;701;52.526;13.408;2023-09-19T04:44:07;17.50;28.30
1413;DHT22;701;52.526;13.408;2023-09-19T04:46:35;17.50;28.30
1413;DHT22;701;52.526;13.408;2023-09-19T04:49:01;17.50;28.20
1413;DHT22;701;52.526;13.408;2023-09-19T04:51:28;17.50;28.30
1413;DHT22;701;52.526;13.408;2023-09-19T04:53:58;17.40;28.10
1413;DHT22;701;52.526;13.408;2023-09-19T04:56:24;17.40;28.00
1413;DHT22;701;52.526;13.408;2023-09-19T04:58:50;17.40;27.90
1413;DHT22;701;52.526;13.408;2023-09-19T05:01:15;17.40;27.90
1413;DHT22;701;52.526;13.408;2023-09-19T05:03:41;17.40;27.80
1413;DHT22;701;52.526;13.408;2023-09-19T05:06:07;17.40;27.80
1413;DHT22;701;52.526;13.408;2023-09-19T05:08:33;17.40;27.80
1413;DHT22;701;52.526;13.408;2023-09-19T05:11:02;17.40;27.70
1413;DHT22;701;52.526;13.408;2023-09-19T05:13:28;17.40;27.60
1413;DHT22;701;52.526;13.408;2023-09-19T05:15:53;17.30;27.60
1413;DHT22;701;52.526;13.408;2023-09-19T05:18:19;17.30;27.60
1413;DHT22;701;52.526;13.408;2023-09-19T05:20:45;17.30;27.50
1413;DHT22;701;52.526;13.408;2023-09-19T05:23:11;17.30;27.40
1413;DHT22;701;52.526;13.408;2023-09-19T05:25:40;17.30;27.30
1413;DHT22;701;52.526;13.408;2023-09-19T05:28:10;17.30;27.30
1413;DHT22;701;52.526;13.408;2023-09-19T05:30:38;17.30;27.30
1413;DHT22;701;52.526;13.408;2023-09-19T05:33:06;17.30;27.10
1413;DHT22;701;52.526;13.408;2023-09-19T05:35:33;17.30;27.10
1413;DHT22;701;52.526;13.408;2023-09-19T05:38:00;17.30;27.10
1413;DHT22;701;52.526;13.408;2023-09-19T05:40:26;17.30;27.00
1413;DHT22;701;52.526;13.408;2023-09-19T05:42:52;17.30;27.00
1413;DHT22;701;52.526;13.408;2023-09-19T05:45:18;17.30;26.90
1413;DHT22;701;52.526;13.408;2023-09-19T05:47:51;17.30;26.60
1413;DHT22;701;52.526;13.408;2023-09-19T05:50:19;17.30;26.60
1413;DHT22;701;52.526;13.408;2023-09-19T05:52:54;17.30;26.60
1413;DHT22;701;52.526;13.408;2023-09-19T05:55:22;17.30;26.50
1413;DHT22;701;52.526;13.408;2023-09-19T05:57:52;17.30;26.10
1413;DHT22;701;52.526;13.408;2023-09-19T06:00:20;17.30;26.10
1413;DHT22;701;52.526;13.408;2023-09-19T06:02:52;17.40;26.00
1413;DHT22;701;52.526;13.408;2023-09-19T06:05:20;17.40;26.00
1413;DHT22;701;52.526;13.408;2023-09-19T06:07:47;17.40;25.50
1413;DHT22;701;52.526;13.408;2023-09-19T06:10:13;17.40;25.40
1413;DHT22;701;52.526;13.408;2023-09-19T06:12:41;17.50;25.50
1413;DHT22;701;52.526;13.408;2023-09-19T06:15:12;17.50;25.50
1413;DHT22;701;52.526;13.408;2023-09-19T06:17:54;17.50;25.50
1413;DHT22;701;52.526;13.408;2023-09-19T06:20:21;17.50;25.50
1413;DHT22;701;52.526;13.408;2023-09-19T06:22:48;17.60;25.60
1413;DHT22;701;52.526;13.408;2023-09-19T06:25:15;17.70;25.60
1413;DHT22;701;52.526;13.408;2023-09-19T06:27:51;17.70;25.30
1413;DHT22;701;52.526;13.408;2023-09-19T06:30:20;17.70;25.10
1413;DHT22;701;52.526;13.408;2023-09-19T06:32:47;17.70;24.70
1413;DHT22;701;52.526;13.408;2023-09-19T06:35:14;17.70;24.60
1413;DHT22;701;52.526;13.408;2023-09-19T06:37:41;17.80;24.40
1413;DHT22;701;52.526;13.408;2023-09-19T06:42:35;17.90;24.20
1413;DHT22;701;52.526;13.408;2023-09-19T06:45:04;18.00;24.00
1413;DHT22;701;52.526;13.408;2023-09-19T06:47:30;18.10;23.90
1413;DHT22;701;52.526;13.408;2023-09-19T06:49:56;18.20;23.40
1413;DHT22;701;52.526;13.408;2023-09-19T06:52:22;18.30;22.90
1413;DHT22;701;52.526;13.408;2023-09-19T06:54:48;18.40;22.50
1413;DHT22;701;52.526;13.408;2023-09-19T06:57:16;18.50;22.10
1413;DHT22;701;52.526;13.408;2023-09-19T06:59:42;18.60;21.80
1413;DHT22;701;52.526;13.408;2023-09-19T07:02:07;18.80;21.60
1413;DHT22;701;52.526;13.408;2023-09-19T07:04:34;18.90;21.00
1413;DHT22;701;52.526;13.408;2023-09-19T07:07:00;19.10;20.10
1413;DHT22;701;52.526;13.408;2023-09-19T07:09:26;19.30;19.90
1413;DHT22;701;52.526;13.408;2023-09-19T07:11:54;19.60;19.50
1413;DHT22;701;52.526;13.408;2023-09-19T07:14:20;19.90;18.40
1413;DHT22;701;52.526;13.408;2023-09-19T07:16:46;20.30;17.50
1413;DHT22;701;52.526;13.408;2023-09-19T07:19:13;20.70;16.60
1413;DHT22;701;52.526;13.408;2023-09-19T07:21:41;21.00;15.70
1413;DHT22;701;52.526;13.408;2023-09-19T07:24:08;21.30;14.60
1413;DHT22;701;52.526;13.408;2023-09-19T07:26:33;21.70;13.50
1413;DHT22;701;52.526;13.408;2023-09-19T07:28:59;21.90;12.50
1413;DHT22;701;52.526;13.408;2023-09-19T07:31:28;22.20;11.30
1413;DHT22;701;52.526;13.408;2023-09-19T07:33:54;22.30;10.20
1413;DHT22;701;52.526;13.408;2023-09-19T07:36:20;22.40;9.70
1413;DHT22;701;52.526;13.408;2023-09-19T07:38:46;22.50;9.90
1413;DHT22;701;52.526;13.408;2023-09-19T07:41:13;22.60;8.90
1413;DHT22;701;52.526;13.408;2023-09-19T07:43:39;22.70;9.10
1413;DHT22;701;52.526;13.408;2023-09-19T07:46:06;22.70;8.80
1413;DHT22;701;52.526;13.408;2023-09-19T07:48:34;22.70;8.50
1413;DHT22;701;52.526;13.408;2023-09-19T07:51:06;22.70;7.90
1413;DHT22;701;52.526;13.408;2023-09-19T07:53:36;22.70;7.80
1413;DHT22;701;52.526;13.408;2023-09-19T07:56:04;22.60;7.80
1413;DHT22;701;52.526;13.408;2023-09-19T07:58:31;22.60;6.90
1413;DHT22;701;52.526;13.408;2023-09-19T08:01:05;22.50;6.20
1413;DHT22;701;52.526;13.408;2023-09-19T08:03:36;22.40;5.90
1413;DHT22;701;52.526;13.408;2023-09-19T08:06:09;22.40;5.50
1413;DHT22;701;52.526;13.408;2023-09-19T08:08:35;22.40;5.60
1413;DHT22;701;52.526;13.408;2023-09-19T08:11:05;22.50;5.60
1413;DHT22;701;52.526;13.408;2023-09-19T08:13:41;22.60;6.20
1413;DHT22;701;52.526;13.408;2023-09-19T08:16:10;22.80;4.60
1413;DHT22;701;52.526;13.408;2023-09-19T08:18:36;22.90;4.70
1413;DHT22;701;52.526;13.408;2023-09-19T08:21:06;23.00;4.80
1413;DHT22;701;52.526;13.408;2023-09-19T08:23:37;23.10;4.50
1413;DHT22;701;52.526;13.408;2023-09-19T08:26:04;23.10;4.40
1413;DHT22;701;52.526;13.408;2023-09-19T08:28:34;23.10;3.60
1413;DHT22;701;52.526;13.408;2023-09-19T08:31:04;23.10;3.10
1413;DHT22;701;52.526;13.408;2023-09-19T08:33:32;23.00;3.00
1413;DHT22;701;52.526;13.408;2023-09-19T08:35:59;23.00;3.40
1413;DHT22;701;52.526;13.408;2023-09-19T08:38:25;23.10;3.50
1413;DHT22;701;52.526;13.408;2023-09-19T08:41:04;23.00;3.40
1413;DHT22;701;52.526;13.408;2023-09-19T08:43:30;23.00;3.10
1413;DHT22;701;52.526;13.408;2023-09-19T08:48:32;22.90;3.30
1413;DHT22;701;52.526;13.408;2023-09-19T08:51:10;22.80;3.60
1413;DHT22;701;52.526;13.408;2023-09-19T08:56:14;24.20;2.10
1413;DHT22;701;52.526;13.408;2023-09-19T08:59:03;25.00;1.00
1413;DHT22;701;52.526;13.408;2023-09-19T09:01:38;26.00;1.00
1413;DHT22;701;52.526;13.408;2023-09-19T09:04:08;26.70;1.00
1413;DHT22;701;52.526;13.408;2023-09-19T09:06:38;27.00;1.00
1413;DHT22;701;52.526;13.408;2023-09-19T09:09:08;26.90;1.00
1413;DHT22;701;52.526;13.408;2023-09-19T09:11:34;26.70;1.00
1413;DHT22;701;52.526;13.408;2023-09-19T09:14:02;26.60;1.00
1413;DHT22;701;52.526;13.408;2023-09-19T09:16:30;26.90;1.00
1413;DHT22;701;52.526;13.408;2023-09-19T09:18:56;27.20;1.00
1413;DHT22;701;52.526;13.408;2023-09-19T09:21:25;27.20;1.00
1413;DHT22;701;52.526;13.408;2023-09-19T09:23:51;27.00;1.00
1413;DHT22;701;52.526;13.408;2023-09-19T09:29:04;27.20;1.00
1413;DHT22;701;52.526;13.408;2023-09-19T09:31:30;27.50;1.00
1413;DHT22;701;52.526;13.408;2023-09-19T09:33:57;28.00;1.00
1413;DHT22;701;52.526;13.408;2023-09-19T09:36:40;28.70;1.00
1413;DHT22;701;52.526;13.408;2023-09-19T09:39:09;29.40;1.00
1413;DHT22;701;52.526;13.408;2023-09-19T09:41:50;30.00;1.00
1413;DHT22;701;52.526;13.408;2023-09-19T09:44:17;29.90;1.00
1413;DHT22;701;52.526;13.408;2023-09-19T09:46:45;29.70;1.00
1413;DHT22;701;52.526;13.408;2023-09-19T09:49:24;29.60;1.00
1413;DHT22;701;52.526;13.408;2023-09-19T09:52:06;29.40;1.00
1413;DHT22;701;52.526;13.408;2023-09-19T09:55:04;29.30;1.00
1413;DHT22;701;52.526;13.408;2023-09-19T09:57:34;29.50;1.00
1413;DHT22;701;52.526;13.408;2023-09-19T10:00:01;29.40;1.00
1413;DHT22;701;52.526;13.408;2023-09-19T10:02:38;29.30;1.00
1413;DHT22;701;52.526;13.408;2023-09-19T10:05:18;29.10;1.00
1413;DHT22;701;52.526;13.408;2023-09-19T10:07:55;28.90;1.00
1413;DHT22;701;52.526;13.408;2023-09-19T10:10:40;29.10;1.00
1413;DHT22;701;52.526;13.408;2023-09-19T10:13:11;29.50;1.00
1413;DHT22;701;52.526;13.408;2023-09-19T10:15:47;29.90;1.00
1413;DHT22;701;52.526;13.408;2023-09-19T10:18:24;30.40;1.00
1413;DHT22;701;52.526;13.408;2023-09-19T10:20:51;30.50;1.00
1413;DHT22;701;52.526;13.408;2023-09-19T10:23:18;30.50;1.00
1413;DHT22;701;52.526;13.408;2023-09-19T10:25:52;30.20;1.00
1413;DHT22;701;52.526;13.408;2023-09-19T10:28:19;29.90;1.00
1413;DHT22;701;52.526;13.408;2023-09-19T10:30:49;29.40;1.00
1413;DHT22;701;52.526;13.408;2023-09-19T10:33:17;29.10;1.00
1413;DHT22;701;52.526;13.408;2023-09-19T10:35:45;28.90;1.00
1413;DHT22;701;52.526;13.408;2023-09-19T10:38:12;28.80;1.00
1413;DHT22;701;52.526;13.408;2023-09-19T10:40:39;28.80;1.00
1413;DHT22;701;52.526;13.408;2023-09-19T10:43:23;28.70;1.00
1413;DHT22;701;52.526;13.408;2023-09-19T10:45:50;28.80;1.00
1413;DHT22;701;52.526;13.408;2023-09-19T10:48:18;28.80;1.00
1413;DHT22;701;52.526;13.408;2023-09-19T10:50:48;28.80;1.00
1413;DHT22;701;52.526;13.408;2023-09-19T10:53:17;28.80;1.00
1413;DHT22;701;52.526;13.408;2023-09-19T10:55:55;28.90;1.00
1413;DHT22;701;52.526;13.408;2023-09-19T10:58:31;29.00;1.00
1413;DHT22;701;52.526;13.408;2023-09-19T11:01:00;29.10;1.00
1413;DHT22;701;52.526;13.408;2023-09-19T11:03:33;29.00;1.00
1413;DHT22;701;52.526;13.408;2023-09-19T11:06:06;28.80;1.00
1413;DHT22;701;52.526;13.408;2023-09-19T11:11:48;28.30;1.00
1413;DHT22;701;52.526;13.408;2023-09-19T11:30:51;26.30;1.00
1413;DHT22;701;52.526;13.408;2023-09-19T11:33:24;26.30;1.00
1413;DHT22;701;52.526;13.408;2023-09-19T11:43:49;26.00;1.00
1413;DHT22;701;52.526;13.408;2023-09-19T11:46:16;25.90;1.00
1413;DHT22;701;52.526;13.408;2023-09-19T11:48:48;26.00;1.00
1413;DHT22;701;52.526;13.408;2023-09-19T11:51:19;25.90;1.00
1413;DHT22;701;52.526;13.408;2023-09-19T11:53:52;25.80;1.00
1413;DHT22;701;52.526;13.408;2023-09-19T11:56:20;25.70;1.00
1413;DHT22;701;52.526;13.408;2023-09-19T11:58:49;25.50;1.00
1413;DHT22;701;52.526;13.408;2023-09-19T12:01:22;25.40;1.00
1413;DHT22;701;52.526;13.408;2023-09-19T12:03:53;25.30;1.00
1413;DHT22;701;52.526;13.408;2023-09-19T12:06:20;25.20;1.00
1413;DHT22;701;52.526;13.408;2023-09-19T12:08:47;25.20;1.00
1413;DHT22;701;52.526;13.408;2023-09-19T12:11:15;25.10;1.00
1413;DHT22;701;52.526;13.408;2023-09-19T12:13:47;25.00;1.00
1413;DHT22;701;52.526;13.408;2023-09-19T12:16:15;25.00;1.00
1413;DHT22;701;52.526;13.408;2023-09-19T12:18:43;25.00;1.00
1413;DHT22;701;52.526;13.408;2023-09-19T12:21:26;24.90;1.00
1413;DHT22;701;52.526;13.408;2023-09-19T12:26:37;24.90;1.00
1413;DHT22;701;52.526;13.408;2023-09-19T12:29:03;24.80;1.00
1413;DHT22;701;52.526;13.408;2023-09-19T12:31:31;24.90;1.00
1413;DHT22;701;52.526;13.408;2023-09-19T12:34:02;24.90;1.00
1413;DHT22;701;52.526;13.408;2023-09-19T12:36:28;24.90;1.00
1413;DHT22;701;52.526;13.408;2023-09-19T12:38:57;24.90;1.00
1413;DHT22;701;52.526;13.408;2023-09-19T12:41:26;24.90;1.00
1413;DHT22;701;52.526;13.408;2023-09-19T12:43:53;25.00;1.00
1413;DHT22;701;52.526;13.408;2023-09-19T12:46:21;25.00;1.00
1413;DHT22;701;52.526;13.408;2023-09-19T12:49:19;25.00;1.00
1413;DHT22;701;52.526;13.408;2023-09-19T12:51:46;24.90;1.00
1413;DHT22;701;52.526;13.408;2023-09-19T12:54:13;24.90;1.00
1413;DHT22;701;52.526;13.408;2023-09-19T12:56:45;24.90;1.00
1413;DHT22;701;52.526;13.408;2023-09-19T12:59:14;24.90;1.00
1413;DHT22;701;52.526;13.408;2023-09-19T13:01:41;24.90;1.00
1413;DHT22;701;52.526;13.408;2023-09-19T13:04:20;24.90;1.00
1413;DHT22;701;52.526;13.408;2023-09-19T13:06:52;24.90;1.00
1413;DHT22;701;52.526;13.408;2023-09-19T13:09:22;24.90;1.00
1413;DHT22;701;52.526;13.408;2023-09-19T13:11:54;24.90;1.00
1413;DHT22;701;52.526;13.408;2023-09-19T13:14:27;24.90;1.00
1413;DHT22;701;52.526;13.408;2023-09-19T13:19:49;25.10;1.00
1413;DHT22;701;52.526;13.408;2023-09-19T13:22:40;25.00;1.00
1413;DHT22;701;52.526;13.408;2023-09-19T13:25:16;25.00;1.00
1413;DHT22;701;52.526;13.408;2023-09-19T13:27:51;24.90;1.00
1413;DHT22;701;52.526;13.408;2023-09-19T13:30:18;24.80;1.00
1413;DHT22;701;52.526;13.408;2023-09-19T13:32:44;24.80;1.00
1413;DHT22;701;52.526;13.408;2023-09-19T13:35:13;24.80;1.00
1413;DHT22;701;52.526;13.408;2023-09-19T13:37:40;24.70;1.00
1413;DHT22;701;52.526;13.408;2023-09-19T13:40:13;24.70;1.00
1413;DHT22;701;52.526;13.408;2023-09-19T13:42:40;24.60;1.00
1413;DHT22;701;52.526;13.408;2023-09-19T13:45:07;24.50;1.00
1413;DHT22;701;52.526;13.408;2023-09-19T13:47:33;24.40;1.00
1413;DHT22;701;52.526;13.408;2023-09-19T13:50:01;24.40;1.00
1413;DHT22;701;52.526;13.408;2023-09-19T13:52:28;24.30;1.00
1413;DHT22;701;52.526;13.408;2023-09-19T13:54:56;24.20;1.00
1413;DHT22;701;52.526;13.408;2023-09-19T13:57:25;24.20;1.00
1413;DHT22;701;52.526;13.408;2023-09-19T13:59:52;24.20;1.00
1413;DHT22;701;52.526;13.408;2023-09-19T14:02:24;24.20;1.00
1413;DHT22;701;52.526;13.408;2023-09-19T14:04:53;24.30;1.00
1413;DHT22;701;52.526;13.408;2023-09-19T14:07:19;24.30;1.00
1413;DHT22;701;52.526;13.408;2023-09-19T14:09:47;24.30;1.00
1413;DHT22;701;52.526;13.408;2023-09-19T14:12:13;24.30;1.00
1413;DHT22;701;52.526;13.408;2023-09-19T14:14:39;24.30;1.00
1413;DHT22;701;52.526;13.408;2023-09-19T14:17:05;24.30;1.00
1413;DHT22;701;52.526;13.408;2023-09-19T14:19:33;24.30;1.00
1413;DHT22;701;52.526;13.408;2023-09-19T14:21:58;24.30;1.00
1413;DHT22;701;52.526;13.408;2023-09-19T14:24:25;24.30;1.00
1413;DHT22;701;52.526;13.408;2023-09-19T14:26:51;24.30;1.00
1413;DHT22;701;52.526;13.408;2023-09-19T14:29:17;24.30;1.00
1413;DHT22;701;52.526;13.408;2023-09-19T14:31:43;24.30;1.00
1413;DHT22;701;52.526;13.408;2023-09-19T14:34:09;24.40;1.00
1413;DHT22;701;52.526;13.408;2023-09-19T14:36:36;24.30;1.00
1413;DHT22;701;52.526;13.408;2023-09-19T14:39:04;24.30;1.00
1413;DHT22;701;52.526;13.408;2023-09-19T14:41:30;24.20;1.00
1413;DHT22;701;52.526;13.408;2023-09-19T14:43:56;24.20;1.00
1413;DHT22;701;52.526;13.408;2023-09-19T14:46:22;24.10;1.00
1413;DHT22;701;52.526;13.408;2023-09-19T14:48:51;24.00;1.00
1413;DHT22;701;52.526;13.408;2023-09-19T14:51:17;23.90;1.00
1413;DHT22;701;52.526;13.408;2023-09-19T14:53:45;23.80;1.00
1413;DHT22;701;52.526;13.408;2023-09-19T14:56:11;23.80;1.00
1413;DHT22;701;52.526;13.408;2023-09-19T14:58:38;23.70;1.00
1413;DHT22;701;52.526;13.408;2023-09-19T15:01:12;23.60;1.00
1413;DHT22;701;52.526;13.408;2023-09-19T15:03:40;23.50;1.00
1413;DHT22;701;52.526;13.408;2023-09-19T15:06:17;23.50;1.00
1413;DHT22;701;52.526;13.408;2023-09-19T15:08:48;23.40;1.00
1413;DHT22;701;52.526;13.408;2023-09-19T15:11:16;23.30;1.00
1413;DHT22;701;52.526;13.408;2023-09-19T15:13:43;23.30;1.00
1413;DHT22;701;52.526;13.408;2023-09-19T15:16:10;23.30;1.00
1413;DHT22;701;52.526;13.408;2023-09-19T15:18:37;23.20;1.00
1413;DHT22;701;52.526;13.408;2023-09-19T15:21:03;23.10;1.00
1413;DHT22;701;52.526;13.408;2023-09-19T15:23:30;23.10;1.00
1413;DHT22;701;52.526;13.408;2023-09-19T15:25:58;23.00;1.00
1413;DHT22;701;52.526;13.408;2023-09-19T15:28:23;23.00;1.00
1413;DHT22;701;52.526;13.408;2023-09-19T15:30:50;22.90;1.00
1413;DHT22;701;52.526;13.408;2023-09-19T15:33:16;22.90;1.00
1413;DHT22;701;52.526;13.408;2023-09-19T15:35:43;22.80;1.00
1413;DHT22;701;52.526;13.408;2023-09-19T15:38:08;22.80;1.00
1413;DHT22;701;52.526;13.408;2023-09-19T15:40:34;22.70;1.00
1413;DHT22;701;52.526;13.408;2023-09-19T15:43:00;22.70;1.00
1413;DHT22;701;52.526;13.408;2023-09-19T15:45:26;22.60;1.00
1413;DHT22;701;52.526;13.408;2023-09-19T15:47:52;22.60;1.00
1413;DHT22;701;52.526;13.408;2023-09-19T15:50:18;22.50;1.00
1413;DHT22;701;52.526;13.408;2023-09-19T15:52:44;22.40;1.00
1413;DHT22;701;52.526;13.408;2023-09-19T15:55:10;22.40;1.00
1413;DHT22;701;52.526;13.408;2023-09-19T15:57:37;22.30;1.00
1413;DHT22;701;52.526;13.408;2023-09-19T16:00:04;22.20;1.00
1413;DHT22;701;52.526;13.408;2023-09-19T16:02:37;22.20;1.00
1413;DHT22;701;52.526;13.408;2023-09-19T16:05:03;22.10;1.00
1413;DHT22;701;52.526;13.408;2023-09-19T16:07:32;22.00;1.00
1413;DHT22;701;52.526;13.408;2023-09-19T16:09:59;21.90;1.00
1413;DHT22;701;52.526;13.408;2023-09-19T16:12:25;21.80;1.00
1413;DHT22;701;52.526;13.408;2023-09-19T16:14:51;21.70;1.00
1413;DHT22;701;52.526;13.408;2023-09-19T16:17:17;21.70;1.00
1413;DHT22;701;52.526;13.408;2023-09-19T16:19:43;21.60;1.00
1413;DHT22;701;52.526;13.408;2023-09-19T16:22:10;21.50;1.00
1413;DHT22;701;52.526;13.408;2023-09-19T16:24:35;21.40;1.00
1413;DHT22;701;52.526;13.408;2023-09-19T16:27:01;21.30;1.00
1413;DHT22;701;52.526;13.408;2023-09-19T16:29:27;21.30;1.00
1413;DHT22;701;52.526;13.408;2023-09-19T16:31:53;21.20;1.00
1413;DHT22;701;52.526;13.408;2023-09-19T16:34:20;21.10;1.00
1413;DHT22;701;52.526;13.408;2023-09-19T16:36:45;21.00;1.00
1413;DHT22;701;52.526;13.408;2023-09-19T16:39:11;21.00;1.00
1413;DHT22;701;52.526;13.408;2023-09-19T16:41:37;20.90;1.00
1413;DHT22;701;52.526;13.408;2023-09-19T16:44:03;20.80;1.00
1413;DHT22;701;52.526;13.408;2023-09-19T16:46:34;20.70;1.00
1413;DHT22;701;52.526;13.408;2023-09-19T16:49:00;20.60;1.00
1413;DHT22;701;52.526;13.408;2023-09-19T16:51:26;20.50;1.00
1413;DHT22;701;52.526;13.408;2023-09-19T16:53:52;20.40;1.00
1413;DHT22;701;52.526;13.408;2023-09-19T16:56:20;20.40;1.00
1413;DHT22;701;52.526;13.408;2023-09-19T16:58:47;20.30;1.00
1413;DHT22;701;52.526;13.408;2023-09-19T17:01:16;20.20;1.00
1413;DHT22;701;52.526;13.408;2023-09-19T17:03:44;20.10;1.00
1413;DHT22;701;52.526;13.408;2023-09-19T17:06:11;20.00;1.00
1413;DHT22;701;52.526;13.408;2023-09-19T17:08:40;19.90;1.00
1413;DHT22;701;52.526;13.408;2023-09-19T17:11:08;19.90;1.00
1413;DHT22;701;52.526;13.408;2023-09-19T17:13:38;19.80;1.00
1413;DHT22;701;52.526;13.408;2023-09-19T17:16:08;19.70;1.00